createdAt,value
2023-04-25T00:00:22.151Z,1.48
2023-04-25T00:02:50.003Z,1.58
2023-04-25T00:05:20.563Z,1.63
2023-04-25T00:07:48.189Z,1.40
2023-04-25T00:10:15.860Z,1.48
2023-04-25T00:12:43.695Z,1.70
2023-04-25T00:15:12.219Z,1.38
2023-04-25T00:17:40.272Z,1.50
2023-04-25T00:20:10.221Z,1.65
2023-04-25T00:22:39.457Z,1.55
2023-04-25T00:25:08.285Z,1.27
2023-04-25T00:27:35.885Z,1.60
2023-04-25T00:30:03.561Z,1.65
2023-04-25T00:32:31.209Z,1.40
2023-04-25T00:34:59.479Z,1.30
2023-04-25T00:37:27.103Z,1.30
2023-04-25T00:39:56.899Z,1.50
2023-04-25T00:42:24.497Z,1.38
2023-04-25T00:44:53.471Z,1.67
2023-04-25T00:47:21.353Z,1.55
2023-04-25T00:49:49.082Z,1.42
2023-04-25T00:52:16.644Z,1.25
2023-04-25T00:54:44.708Z,1.70
2023-04-25T00:57:13.912Z,1.42
2023-04-25T00:59:46.134Z,1.50
2023-04-25T01:02:14.303Z,1.60
2023-04-25T01:04:42.166Z,1.33
2023-04-25T01:07:10.134Z,1.40
2023-04-25T01:09:37.708Z,1.70
2023-04-25T01:12:05.853Z,1.20
2023-04-25T01:14:34.972Z,1.17
2023-04-25T01:17:03.455Z,1.55
2023-04-25T01:19:31.804Z,1.42
2023-04-25T01:22:00.787Z,1.73
2023-04-25T01:24:28.819Z,1.52
2023-04-25T01:26:57.929Z,1.60
2023-04-25T01:29:27.423Z,1.20
2023-04-25T01:31:55.486Z,1.50
2023-04-25T01:34:23.377Z,3.88
2023-04-25T01:36:52.300Z,2.90
2023-04-25T01:39:21.872Z,1.88
2023-04-25T01:41:49.831Z,1.90
2023-04-25T01:48:29.594Z,1.58
2023-04-25T01:50:57.483Z,2.00
2023-04-25T01:53:25.958Z,1.50
2023-04-25T01:55:55.886Z,1.63
2023-04-25T01:58:26.434Z,1.85
2023-04-25T02:01:05.184Z,1.63
2023-04-25T02:03:41.203Z,1.98
2023-04-25T02:06:14.559Z,1.75
2023-04-25T02:08:45.369Z,1.70
2023-04-25T02:11:16.074Z,2.17
2023-04-25T02:13:49.984Z,1.90
2023-04-25T02:16:26.328Z,1.75
2023-04-25T02:18:54.917Z,1.90
2023-04-25T02:21:22.453Z,2.28
2023-04-25T02:23:53.187Z,1.80
2023-04-25T02:26:24.576Z,2.00
2023-04-25T02:28:52.875Z,2.10
2023-04-25T02:31:21.217Z,2.00
2023-04-25T02:33:49.680Z,1.90
2023-04-25T02:36:17.398Z,2.05
2023-04-25T02:38:44.936Z,1.65
2023-04-25T02:41:12.565Z,2.05
2023-04-25T02:43:41.480Z,2.25
2023-04-25T02:46:09.282Z,2.30
2023-04-25T02:48:36.813Z,2.17
2023-04-25T02:51:04.718Z,2.10
2023-04-25T02:53:32.487Z,2.17
2023-04-25T02:56:00.201Z,2.25
2023-04-25T02:58:27.737Z,2.08
2023-04-25T03:00:56.924Z,1.77
2023-04-25T03:03:24.785Z,1.90
2023-04-25T03:05:53.735Z,2.13
2023-04-25T03:08:27.799Z,2.08
2023-04-25T03:10:56.522Z,2.10
2023-04-25T03:13:24.494Z,1.90
2023-04-25T03:15:52.089Z,2.47
2023-04-25T03:18:21.694Z,2.08
2023-04-25T03:20:49.291Z,2.40
2023-04-25T03:23:16.835Z,1.85
2023-04-25T03:25:44.608Z,2.20
2023-04-25T03:28:12.235Z,2.15
2023-04-25T03:30:39.850Z,2.10
2023-04-25T03:33:07.931Z,2.60
2023-04-25T03:35:37.035Z,2.10
2023-04-25T03:38:04.873Z,2.28
2023-04-25T03:40:37.291Z,2.28
2023-04-25T03:43:19.424Z,1.90
2023-04-25T03:45:54.120Z,1.90
2023-04-25T03:48:25.530Z,2.10
2023-04-25T03:50:55.097Z,2.10
2023-04-25T03:53:22.710Z,2.25
2023-04-25T03:56:08.959Z,2.00
2023-04-25T03:58:38.553Z,1.75
2023-04-25T04:01:08.657Z,1.90
2023-04-25T04:03:40.409Z,2.00
2023-04-25T04:06:10.225Z,2.15
2023-04-25T04:08:40.936Z,2.23
2023-04-25T04:11:09.787Z,1.92
2023-04-25T04:13:38.199Z,2.00
2023-04-25T04:16:07.353Z,2.05
2023-04-25T04:18:35.451Z,1.90
2023-04-25T04:21:03.151Z,1.88
2023-04-25T04:23:36.178Z,3.08
2023-04-25T04:26:05.993Z,2.90
2023-04-25T04:29:00.238Z,2.97
2023-04-25T04:31:39.126Z,2.17
2023-04-25T04:34:07.238Z,2.00
2023-04-25T04:36:36.308Z,2.17
2023-04-25T04:39:07.640Z,2.20
2023-04-25T04:41:44.767Z,2.28
2023-04-25T04:44:16.696Z,1.95
2023-04-25T04:46:51.417Z,2.38
2023-04-25T04:49:27.995Z,2.20
2023-04-25T04:52:19.395Z,2.22
2023-04-25T04:54:54.316Z,2.08
2023-04-25T04:57:36.759Z,2.28
2023-04-25T05:00:29.767Z,1.73
2023-04-25T05:03:33.144Z,1.75
2023-04-25T05:06:03.501Z,2.20
2023-04-25T05:08:44.752Z,2.22
2023-04-25T05:11:33.931Z,1.85
2023-04-25T05:14:19.559Z,1.95
2023-04-25T05:16:47.209Z,2.17
2023-04-25T05:19:22.785Z,1.67
2023-04-25T05:22:10.623Z,2.00
2023-04-25T05:24:56.767Z,2.88
2023-04-25T05:27:48.672Z,1.73
2023-04-25T05:30:40.149Z,1.77
2023-04-25T05:33:12.266Z,2.55
2023-04-25T05:35:40.437Z,1.77
2023-04-25T05:38:08.008Z,1.70
2023-04-25T05:40:55.738Z,1.63
2023-04-25T05:43:46.107Z,2.38
2023-04-25T05:46:34.402Z,2.03
2023-04-25T05:49:17.551Z,1.58
2023-04-25T05:52:20.227Z,4.35
2023-04-25T05:55:01.998Z,5.55
2023-04-25T05:57:32.117Z,4.38
2023-04-25T06:00:01.485Z,3.03
2023-04-25T06:02:41.177Z,1.73
2023-04-25T06:05:10.862Z,1.58
2023-04-25T06:07:38.829Z,1.70
2023-04-25T06:10:08.149Z,1.95
2023-04-25T06:12:35.749Z,1.80
2023-04-25T06:15:20.163Z,1.63
2023-04-25T06:17:54.590Z,1.80
2023-04-25T06:20:24.860Z,1.80
2023-04-25T06:22:53.872Z,1.92
2023-04-25T06:25:26.737Z,7.78
2023-04-25T06:27:55.294Z,2.78
2023-04-25T06:30:26.615Z,3.13
2023-04-25T06:32:58.542Z,2.50
2023-04-25T06:35:26.403Z,2.47
2023-04-25T06:37:54.453Z,2.50
2023-04-25T06:40:24.539Z,2.25
2023-04-25T06:42:52.561Z,1.70
2023-04-25T06:45:41.934Z,1.98
2023-04-25T06:48:10.292Z,2.10
2023-04-25T06:50:38.749Z,2.30
2023-04-25T06:53:06.690Z,2.00
2023-04-25T06:55:35.758Z,2.00
2023-04-25T06:58:19.713Z,2.40
2023-04-25T07:01:05.888Z,2.35
2023-04-25T07:03:34.562Z,2.33
2023-04-25T07:06:08.563Z,2.20
2023-04-25T07:08:36.319Z,2.35
2023-04-25T07:11:03.935Z,2.40
2023-04-25T07:13:31.529Z,2.92
2023-04-25T07:15:59.755Z,2.33
2023-04-25T07:18:30.755Z,2.53
2023-04-25T07:20:58.625Z,2.90
2023-04-25T07:23:28.314Z,2.67
2023-04-25T07:25:56.854Z,2.63
2023-04-25T07:28:26.785Z,3.38
2023-04-25T07:30:54.686Z,3.20
2023-04-25T07:33:22.330Z,3.13
2023-04-25T07:35:51.396Z,3.03
2023-04-25T07:38:19.399Z,2.83
2023-04-25T07:40:49.367Z,2.88
2023-04-25T07:43:18.395Z,2.10
2023-04-25T07:46:00.402Z,2.97
2023-04-25T07:48:31.472Z,2.83
2023-04-25T07:51:00.632Z,2.75
2023-04-25T07:53:28.528Z,2.88
2023-04-25T07:56:01.321Z,2.65
2023-04-25T07:58:32.248Z,2.70
2023-04-25T08:01:02.605Z,2.33
2023-04-25T08:03:36.351Z,2.67
2023-04-25T08:06:09.428Z,3.55
2023-04-25T08:08:46.142Z,3.55
2023-04-25T08:11:18.033Z,3.53
2023-04-25T08:13:45.733Z,3.50
2023-04-25T08:16:13.955Z,3.50
2023-04-25T08:18:42.168Z,3.55
2023-04-25T08:21:13.291Z,4.00
2023-04-25T08:23:42.364Z,4.22
2023-04-25T08:26:46.779Z,4.27
2023-04-25T08:29:17.720Z,3.70
2023-04-25T08:31:46.392Z,3.97
2023-04-25T08:34:16.099Z,4.50
2023-04-25T08:36:47.705Z,4.75
2023-04-25T08:39:34.118Z,4.85
2023-04-25T08:42:21.325Z,5.25
2023-04-25T08:44:50.420Z,5.00
2023-04-25T08:47:23.666Z,5.30
2023-04-25T08:49:56.985Z,5.30
2023-04-25T08:52:29.251Z,5.57
2023-04-25T08:54:58.978Z,5.85
2023-04-25T08:57:29.559Z,5.72
2023-04-25T08:59:59.312Z,6.55
2023-04-25T09:02:27.279Z,5.63
2023-04-25T09:04:56.294Z,6.18
2023-04-25T09:07:26.632Z,6.07
2023-04-25T09:09:55.625Z,6.78
2023-04-25T09:12:24.591Z,5.97
2023-04-25T09:15:07.339Z,6.00
2023-04-25T09:18:07.931Z,6.15
2023-04-25T09:23:16.888Z,6.05
2023-04-25T09:25:44.739Z,6.07
2023-04-25T09:28:13.148Z,6.68
2023-04-25T09:30:41.106Z,6.32
2023-04-25T09:33:16.296Z,6.60
2023-04-25T09:35:55.088Z,3.90
2023-04-25T09:38:44.772Z,3.70
2023-04-25T09:41:35.703Z,3.45
2023-04-25T09:44:04.388Z,3.95
2023-04-25T09:46:37.510Z,7.67
2023-04-25T09:49:08.959Z,3.42
2023-04-25T09:51:56.082Z,3.35
2023-04-25T09:54:26.298Z,3.20
2023-04-25T09:57:13.112Z,3.20
2023-04-25T09:59:45.049Z,2.80
2023-04-25T10:02:13.713Z,3.55
2023-04-25T10:04:43.331Z,6.85
2023-04-25T10:07:21.881Z,4.95
2023-04-25T10:09:51.758Z,3.00
2023-04-25T10:12:19.875Z,2.75
2023-04-25T10:14:48.554Z,3.45
2023-04-25T10:17:16.488Z,3.22
2023-04-25T10:19:44.301Z,3.40
2023-04-25T10:22:16.784Z,6.80
2023-04-25T10:24:47.181Z,4.20
2023-04-25T10:27:16.505Z,3.80
2023-04-25T10:29:45.291Z,3.78
2023-04-25T10:32:14.788Z,3.63
2023-04-25T10:34:44.538Z,4.07
2023-04-25T10:37:15.284Z,4.10
2023-04-25T10:39:44.710Z,3.90
2023-04-25T10:42:13.391Z,4.05
2023-04-25T10:44:42.315Z,5.20
2023-04-25T10:47:13.098Z,4.65
2023-04-25T10:49:44.477Z,4.60
2023-04-25T10:52:20.401Z,4.38
2023-04-25T10:54:54.135Z,5.97
2023-04-25T10:57:32.372Z,5.38
2023-04-25T11:00:12.798Z,5.45
2023-04-25T11:02:44.076Z,4.53
2023-04-25T11:05:12.066Z,5.05
2023-04-25T11:07:52.917Z,4.75
2023-04-25T11:10:28.227Z,4.40
2023-04-25T11:12:56.005Z,4.25
2023-04-25T11:15:25.364Z,4.32
2023-04-25T11:17:53.416Z,4.22
2023-04-25T11:20:21.418Z,4.47
2023-04-25T11:22:51.011Z,3.42
2023-04-25T11:25:21.000Z,3.15
2023-04-25T11:27:52.960Z,3.30
2023-04-25T11:30:22.090Z,3.55
2023-04-25T11:32:52.889Z,3.10
2023-04-25T11:35:21.093Z,3.53
2023-04-25T11:37:48.886Z,3.85
2023-04-25T11:40:16.784Z,4.03
2023-04-25T11:42:46.778Z,5.35
2023-04-25T11:45:15.731Z,3.22
2023-04-25T11:47:44.286Z,2.60
2023-04-25T11:50:15.095Z,3.20
2023-04-25T11:52:44.659Z,3.30
2023-04-25T11:55:15.565Z,3.28
2023-04-25T11:57:44.080Z,3.40
2023-04-25T12:00:17.579Z,3.25
2023-04-25T12:02:48.457Z,3.00
2023-04-25T12:07:48.833Z,2.78
2023-04-25T12:10:18.315Z,2.55
2023-04-25T12:12:47.845Z,3.40
2023-04-25T12:15:18.345Z,3.25
2023-04-25T12:17:47.278Z,4.05
2023-04-25T12:20:16.785Z,4.45
2023-04-25T12:22:47.571Z,4.25
2023-04-25T12:25:35.395Z,4.88
2023-04-25T12:28:14.103Z,4.72
2023-04-25T12:30:59.371Z,4.95
2023-04-25T12:33:28.319Z,6.25
2023-04-25T12:35:55.899Z,5.13
2023-04-25T12:38:30.309Z,5.55
2023-04-25T12:40:58.542Z,5.38
2023-04-25T12:43:26.300Z,4.88
2023-04-25T12:45:55.937Z,5.30
2023-04-25T12:48:24.670Z,4.95
2023-04-25T12:50:53.107Z,4.93
2023-04-25T12:53:21.949Z,4.18
2023-04-25T12:55:51.624Z,4.85
2023-04-25T12:58:20.989Z,4.53
2023-04-25T13:00:48.800Z,4.07
2023-04-25T13:03:16.512Z,4.65
2023-04-25T13:05:44.444Z,4.50
2023-04-25T13:08:12.335Z,3.83
2023-04-25T13:10:40.377Z,3.38
2023-04-25T13:13:09.495Z,3.85
2023-04-25T13:15:37.469Z,3.72
2023-04-25T13:18:06.429Z,5.00
2023-04-25T13:20:34.298Z,4.50
2023-04-25T13:23:02.880Z,3.15
2023-04-25T13:25:30.628Z,2.50
2023-04-25T13:27:58.280Z,2.78
2023-04-25T13:30:27.156Z,2.80
2023-04-25T13:32:57.228Z,2.65
2023-04-25T13:35:25.112Z,2.10
2023-04-25T13:37:52.671Z,3.22
2023-04-25T13:40:20.316Z,2.92
2023-04-25T13:42:47.891Z,2.53
2023-04-25T13:45:15.807Z,2.90
2023-04-25T13:47:44.896Z,2.83
2023-04-25T13:50:12.742Z,1.75
2023-04-25T13:52:40.396Z,1.77
2023-04-25T13:55:09.512Z,1.50
2023-04-25T13:57:39.365Z,2.42
2023-04-25T14:00:10.940Z,2.45
2023-04-25T14:02:38.652Z,6.22
2023-04-25T14:05:08.961Z,2.80
2023-04-25T14:07:36.777Z,1.92
2023-04-25T14:10:05.123Z,2.20
2023-04-25T14:12:33.087Z,1.98
2023-04-25T14:15:00.981Z,1.83
2023-04-25T14:17:28.763Z,2.00
2023-04-25T14:19:56.387Z,1.55
2023-04-25T14:22:26.566Z,2.10
2023-04-25T14:24:54.250Z,1.63
2023-04-25T14:27:21.925Z,2.38
2023-04-25T14:29:49.697Z,2.03
2023-04-25T14:32:17.316Z,2.17
2023-04-25T14:34:44.862Z,2.50
2023-04-25T14:37:12.474Z,2.40
2023-04-25T14:39:41.373Z,1.80
2023-04-25T14:42:09.733Z,1.80
2023-04-25T14:44:37.677Z,2.20
2023-04-25T14:47:11.242Z,1.90
2023-04-25T14:49:38.870Z,1.70
2023-04-25T14:52:06.418Z,2.40
2023-04-25T14:54:33.995Z,2.00
2023-04-25T14:57:05.151Z,2.25
2023-04-25T14:59:32.850Z,1.60
2023-04-25T15:02:00.440Z,2.08
2023-04-25T15:04:28.556Z,1.90
2023-04-25T15:06:56.937Z,1.70
2023-04-25T15:09:26.021Z,2.20
2023-04-25T15:11:53.591Z,2.00
2023-04-25T15:14:22.558Z,1.50
2023-04-25T15:16:50.114Z,1.60
2023-04-25T15:19:22.248Z,1.90
2023-04-25T15:21:49.951Z,1.90
2023-04-25T15:24:18.925Z,2.00
2023-04-25T15:26:47.236Z,1.77
2023-04-25T15:29:14.737Z,2.00
2023-04-25T15:31:43.797Z,1.80
2023-04-25T15:34:14.547Z,2.00
2023-04-25T15:36:44.430Z,2.28
2023-04-25T15:39:12.029Z,2.60
2023-04-25T15:41:39.956Z,2.35
2023-04-25T15:44:08.627Z,1.85
2023-04-25T15:46:36.322Z,2.80
2023-04-25T15:49:05.550Z,3.08
2023-04-25T15:51:34.054Z,2.60
2023-04-25T15:54:02.655Z,2.83
2023-04-25T15:56:30.612Z,2.88
2023-04-25T15:58:58.134Z,3.47
2023-04-25T16:01:28.860Z,4.38
2023-04-25T16:03:58.218Z,4.50
2023-04-25T16:06:28.344Z,2.80
2023-04-25T16:08:56.223Z,2.47
2023-04-25T16:11:23.998Z,2.33
2023-04-25T16:13:51.884Z,2.63
2023-04-25T16:16:19.769Z,2.67
2023-04-25T16:18:47.682Z,2.00
2023-04-25T16:21:17.027Z,2.17
2023-04-25T16:23:46.390Z,2.05
2023-04-25T16:26:16.695Z,2.58
2023-04-25T16:28:44.354Z,2.13
2023-04-25T16:31:12.376Z,2.50
2023-04-25T16:33:39.998Z,3.22
2023-04-25T16:36:09.251Z,3.22
2023-04-25T16:38:39.683Z,3.05
2023-04-25T16:41:08.860Z,3.50
2023-04-25T16:43:36.431Z,3.50
2023-04-25T16:46:04.056Z,4.10
2023-04-25T16:48:31.677Z,4.43
2023-04-25T16:50:59.466Z,4.22
2023-04-25T16:53:27.120Z,3.88
2023-04-25T16:55:54.810Z,5.15
2023-04-25T16:58:23.991Z,5.70
2023-04-25T17:00:51.648Z,3.88
2023-04-25T17:03:19.283Z,4.03
2023-04-25T17:05:48.046Z,3.58
2023-04-25T17:08:15.720Z,5.05
2023-04-25T17:10:45.782Z,4.78
2023-04-25T17:13:13.331Z,4.07
2023-04-25T17:15:42.419Z,4.78
2023-04-25T17:18:10.809Z,4.00
2023-04-25T17:20:38.491Z,3.80
2023-04-25T17:23:06.220Z,6.68
2023-04-25T17:25:33.954Z,10.20
2023-04-25T17:28:01.568Z,8.68
2023-04-25T17:30:29.186Z,8.27
2023-04-25T17:32:58.089Z,5.40
2023-04-25T17:35:26.090Z,4.65
2023-04-25T17:37:53.678Z,5.07
2023-04-25T17:40:21.764Z,4.68
2023-04-25T17:42:49.518Z,5.70
2023-04-25T17:45:17.440Z,5.20
2023-04-25T17:47:45.352Z,5.22
2023-04-25T17:50:16.613Z,5.13
2023-04-25T17:52:44.972Z,5.40
2023-04-25T17:55:12.611Z,8.65
2023-04-25T17:57:40.180Z,6.60
2023-04-25T18:00:11.286Z,5.47
2023-04-25T18:02:45.165Z,4.60
2023-04-25T18:05:15.490Z,4.53
2023-04-25T18:07:43.376Z,4.13
2023-04-25T18:10:11.810Z,5.32
2023-04-25T18:12:39.478Z,4.30
2023-04-25T18:15:08.152Z,4.68
2023-04-25T18:17:39.958Z,5.30
2023-04-25T18:20:12.054Z,4.90
2023-04-25T18:22:41.037Z,5.32
2023-04-25T18:25:10.051Z,7.57
2023-04-25T18:27:38.126Z,5.82
2023-04-25T18:30:06.789Z,4.50
2023-04-25T18:32:34.663Z,4.47
2023-04-25T18:35:02.456Z,4.70
2023-04-25T18:37:30.059Z,5.03
2023-04-25T18:39:59.205Z,4.70
2023-04-25T18:42:26.775Z,5.10
2023-04-25T18:44:54.342Z,4.40
2023-04-25T18:47:21.869Z,4.72
2023-04-25T18:49:50.747Z,5.53
2023-04-25T18:52:19.016Z,5.43
2023-04-25T18:54:47.071Z,5.18
2023-04-25T18:57:17.654Z,4.47
2023-04-25T18:59:46.208Z,4.97
2023-04-25T19:02:16.013Z,4.68
2023-04-25T19:04:44.035Z,4.45
2023-04-25T19:07:11.676Z,5.18
2023-04-25T19:09:39.187Z,4.97
2023-04-25T19:12:07.189Z,5.18
2023-04-25T19:14:36.159Z,4.75
2023-04-25T19:17:04.459Z,5.32
2023-04-25T19:19:32.390Z,6.10
2023-04-25T19:21:59.932Z,6.40
2023-04-25T19:24:27.576Z,5.80
2023-04-25T19:26:55.178Z,5.00
2023-04-25T19:29:22.997Z,4.97
2023-04-25T19:31:51.998Z,4.80
2023-04-25T19:34:19.581Z,4.65
2023-04-25T19:36:47.095Z,4.72
2023-04-25T19:39:14.724Z,4.53
2023-04-25T19:41:42.365Z,4.85
2023-04-25T19:44:10.384Z,4.60
2023-04-25T19:46:38.131Z,4.88
2023-04-25T19:49:07.898Z,4.93
2023-04-25T19:51:36.600Z,5.57
2023-04-25T19:54:04.227Z,4.90
2023-04-25T19:56:32.503Z,4.32
2023-04-25T19:59:00.561Z,5.30
2023-04-25T20:01:28.354Z,5.45
2023-04-25T20:03:56.521Z,5.40
2023-04-25T20:06:27.009Z,5.55
2023-04-25T20:08:54.717Z,4.97
2023-04-25T20:11:22.539Z,5.15
2023-04-25T20:13:50.461Z,5.65
2023-04-25T20:16:20.243Z,10.82
2023-04-25T20:18:48.335Z,6.32
2023-04-25T20:21:18.402Z,5.90
2023-04-25T20:23:47.407Z,5.15
2023-04-25T20:26:15.210Z,4.68
2023-04-25T20:28:42.856Z,5.03
2023-04-25T20:31:11.577Z,7.40
2023-04-25T20:33:39.286Z,5.47
2023-04-25T20:36:07.597Z,5.22
2023-04-25T20:38:35.214Z,18.45
2023-04-25T20:41:04.556Z,10.38
2023-04-25T20:43:32.358Z,5.55
2023-04-25T20:46:00.438Z,4.93
2023-04-25T20:48:28.195Z,4.97
2023-04-25T20:50:56.207Z,5.03
2023-04-25T20:53:23.857Z,4.90
2023-04-25T20:55:51.538Z,4.03
2023-04-25T20:58:21.495Z,4.63
2023-04-25T21:00:50.419Z,5.03
2023-04-25T21:03:18.160Z,4.70
2023-04-25T21:05:46.492Z,5.13
2023-04-25T21:08:14.149Z,5.75
2023-04-25T21:10:42.093Z,5.15
2023-04-25T21:13:09.644Z,5.28
2023-04-25T21:15:38.818Z,4.40
2023-04-25T21:18:07.029Z,4.75
2023-04-25T21:20:34.833Z,4.47
2023-04-25T21:23:02.862Z,5.05
2023-04-25T21:25:31.749Z,5.15
2023-04-25T21:28:00.369Z,5.10
2023-04-25T21:30:28.059Z,5.40
2023-04-25T21:32:57.362Z,5.30
2023-04-25T21:35:25.542Z,5.35
2023-04-25T21:37:53.581Z,4.88
2023-04-25T21:40:21.891Z,5.03
2023-04-25T21:42:51.852Z,5.00
2023-04-25T21:45:20.403Z,4.65
2023-04-25T21:47:48.322Z,5.00
2023-04-25T21:50:18.020Z,5.55
2023-04-25T21:52:45.630Z,5.18
2023-04-25T21:55:13.337Z,5.60
2023-04-25T21:57:41.159Z,5.40
2023-04-25T22:00:21.830Z,5.35
2023-04-25T22:02:49.699Z,5.60
2023-04-25T22:05:20.389Z,5.18
2023-04-25T22:07:48.275Z,4.63
2023-04-25T22:10:16.243Z,5.40
2023-04-25T22:12:44.584Z,5.32
2023-04-25T22:15:13.574Z,5.40
2023-04-25T22:17:41.213Z,4.95
2023-04-25T22:20:14.198Z,4.95
2023-04-25T22:22:44.057Z,5.13
2023-04-25T22:25:12.827Z,5.80
2023-04-25T22:27:42.859Z,5.20
2023-04-25T22:30:13.020Z,5.10
2023-04-25T22:32:41.418Z,5.70
2023-04-25T22:35:10.286Z,5.13
2023-04-25T22:37:38.112Z,5.13
2023-04-25T22:40:08.962Z,5.22
2023-04-25T22:42:40.601Z,6.13
2023-04-25T22:45:09.350Z,5.38
2023-04-25T22:47:37.230Z,5.03
2023-04-25T22:50:07.406Z,4.80
2023-04-25T22:52:35.031Z,5.40
2023-04-25T22:55:04.286Z,4.88
2023-04-25T22:57:33.187Z,4.82
2023-04-25T23:00:01.573Z,4.38
2023-04-25T23:02:29.316Z,4.88
2023-04-25T23:04:56.933Z,5.72
2023-04-25T23:07:25.074Z,5.45
2023-04-25T23:09:52.599Z,5.30
2023-04-25T23:12:20.153Z,5.45
2023-04-25T23:14:51.847Z,5.60
2023-04-25T23:17:20.369Z,5.28
2023-04-25T23:19:48.250Z,5.15
2023-04-25T23:22:15.857Z,5.03
2023-04-25T23:24:43.623Z,5.97
2023-04-25T23:27:11.209Z,5.32
2023-04-25T23:29:40.448Z,6.03
2023-04-25T23:32:10.215Z,6.38
2023-04-25T23:34:37.831Z,9.45
2023-04-25T23:37:05.393Z,8.40
2023-04-25T23:39:33.077Z,6.88
2023-04-25T23:42:00.691Z,5.70
2023-04-25T23:44:28.216Z,6.45
2023-04-25T23:46:55.728Z,5.55
2023-04-25T23:49:24.602Z,5.03
2023-04-25T23:51:52.134Z,5.25
2023-04-25T23:54:19.704Z,5.05
2023-04-25T23:56:47.264Z,5.05
2023-04-25T23:59:14.809Z,5.95
